Date,TemperatureHighF,TemperatureAvgF,TemperatureLowF,DewpointHighF,DewpointAvgF,DewpointLowF,HumidityHigh,HumidityAvg,HumidityLow,PressureMaxIn,PressureMinIn,WindSpeedMaxMPH,WindSpeedAvgMPH,GustSpeedMaxMPH,PrecipitationSumIn
2013-1-21,58,55,54,55,52,48,96,92,69,30.25,30.22,3,2,7,0.00
2013-1-22,57,56,56,53,53,53,90,88,86,30.35,30.29,7,6,11,0.00
2013-1-24,61,61,61,60,60,60,96,96,96,30.28,30.27,8,8,8,0.00
2013-1-28,68,68,67,65,65,65,91,91,91,30.11,30.10,19,17,25,0.00
2013-1-29,70,68,61,68,67,59,98,96,93,29.93,29.68,26,14,26,0.14
2013-1-30,63,58,54,58,38,30,94,49,35,30.28,29.79,39,22,41,0.01
2013-1-31,60,56,51,48,37,29,75,51,37,30.37,30.25,18,6,6,0.00
2013-2-1,64,60,57,54,50,45,84,72,51,30.41,30.28,19,5,11,0.00
2013-2-2,67,62,58,59,57,54,93,82,69,30.30,30.21,11,6,0,0.00
2013-2-3,65,61,58,59,52,42,96,74,44,30.35,30.11,19,9,0,0.00
2013-2-4,68,64,59,64,61,55,96,88,83,30.11,29.88,15,7,0,0.00
2013-2-5,70,65,62,67,64,62,98,95,87,30.02,29.91,15,5,0,0.00
2013-2-6,66,62,61,65,61,59,98,95,90,30.07,29.87,31,16,34,1.09
2013-2-7,64,62,60,62,60,58,97,94,89,30.03,29.92,11,5,14,0.00
2013-2-8,65,61,57,62,57,53,98,87,75,30.21,30.02,28,16,30,0.01
2013-2-9,67,63,58,65,60,54,95,90,87,30.16,29.91,27,14,0,0.00
2013-2-10,73,66,61,71,64,59,97,92,88,29.98,29.81,20,14,22,0.01
2013-2-11,64,59,56,61,56,52,96,92,83,30.07,29.96,35,22,24,0.35
2013-2-12,68,63,58,68,62,55,99,94,85,30.03,29.81,29,13,29,0.09
2013-2-13,59,54,49,53,46,42,86,74,61,30.15,30.02,34,19,39,0.03
2013-2-14,61,55,49,48,45,38,90,70,44,30.20,30.10,14,6,0,0.00
2013-2-15,63,58,52,52,49,42,80,73,56,30.33,30.13,37,9,31,0.00
2013-2-16,55,51,47,43,35,26,68,56,43,30.47,30.30,35,15,0,0.00
2013-2-17,65,60,53,56,49,43,78,66,53,30.30,30.10,27,13,5,0.00
2013-2-18,69,66,60,65,61,56,94,84,75,30.10,29.90,38,20,27,0.00
2013-2-19,62,58,54,53,46,40,91,64,47,30.27,30.10,34,19,40,0.08
2013-2-20,64,61,58,62,54,45,94,79,58,30.16,29.83,32,20,42,0.00
2013-2-21,69,66,64,68,63,-100,97,93,78,29.87,29.75,25,5,32,0.06
2013-2-22,66,63,58,59,55,53,84,77,67,29.99,29.86,28,18,18,0.00
2013-2-23,62,57,53,57,52,48,92,83,73,30.03,29.92,31,13,29,0.00
2013-2-24,65,61,57,61,57,53,96,88,76,29.97,29.71,20,9,0,0.00
2013-2-25,72,64,51,68,52,34,99,71,25,29.81,29.55,41,19,32,0.03
2013-2-26,62,53,46,50,38,35,75,59,39,29.98,29.81,36,17,29,0.00
2013-2-27,70,62,54,56,48,36,87,62,36,30.19,29.94,27,12,31,0.00
2013-2-28,56,50,46,40,34,30,69,54,40,30.30,30.17,34,19,39,0.00
2013-3-1,62,54,47,45,37,27,71,54,27,30.31,30.16,22,13,21,0.00
2013-3-2,55,50,44,40,34,27,72,55,35,30.37,30.25,28,19,32,0.00
2013-3-3,61,54,47,53,38,30,76,55,42,30.32,30.07,24,9,23,0.00
2013-3-4,70,65,61,63,60,53,90,82,76,30.06,29.85,35,20,0,0.00
2013-3-5,67,64,56,63,49,36,91,61,39,30.31,29.86,38,19,27,0.00
2013-3-6,61,53,49,48,36,27,73,53,28,30.44,30.27,38,17,36,0.00
2013-3-7,62,59,53,56,50,47,89,73,59,30.32,30.23,21,11,28,0.00
2013-3-8,66,62,59,60,58,56,93,88,79,30.24,30.10,30,13,25,0.00
2013-3-9,69,65,62,64,62,60,94,89,82,30.11,29.80,21,11,11,0.00
2013-3-10,68,63,56,65,58,44,96,85,58,30.05,29.77,40,16,0,0.05
2013-3-11,61,55,50,45,35,26,68,49,28,30.16,30.01,32,17,0,0.00
2013-3-12,61,57,51,50,42,34,75,57,45,30.28,30.11,13,7,0,0.00
2013-3-13,63,59,57,54,49,40,88,69,45,30.48,30.28,19,8,0,0.00
2013-3-14,64,61,56,56,51,48,89,72,58,30.46,30.32,15,7,0,0.00
2013-3-15,69,64,60,61,58,52,91,82,74,30.32,30.12,18,10,0,0.00
2013-3-16,70,66,63,63,62,60,90,85,78,30.12,29.92,21,13,19,0.00
2013-3-17,72,68,65,68,66,62,97,91,87,29.92,29.76,21,11,19,0.00
2013-3-18,74,69,66,69,67,66,98,93,81,29.92,29.77,17,8,12,0.00
2013-3-19,70,66,64,69,62,53,95,85,68,30.02,29.91,25,13,25,0.00
2013-3-20,70,64,59,65,56,48,94,76,48,30.20,29.96,42,17,31,0.01
2013-3-21,68,66,61,64,58,51,88,76,65,30.08,29.76,19,10,19,0.00
2013-3-22,74,70,67,70,68,64,96,93,88,29.78,29.71,21,10,18,0.01
2013-3-23,72,69,67,70,68,66,97,95,91,29.77,29.60,13,6,9,0.00
2013-3-24,68,60,55,67,48,35,98,66,40,30.15,29.67,37,23,30,0.01
2013-3-25,59,53,46,40,33,26,67,50,30,30.37,30.16,36,24,30,0.00
2013-3-26,59,53,47,40,33,28,59,47,37,30.51,30.34,36,19,28,0.00
2013-3-27,62,59,54,52,43,36,71,56,44,30.41,30.27,21,10,0,0.00
2013-3-28,68,64,62,60,57,52,87,76,70,30.30,30.23,23,11,18,0.00
2013-3-29,69,66,63,64,62,59,91,87,81,30.26,30.17,19,9,0,0.00
2013-3-30,72,68,65,66,64,62,94,88,79,30.18,30.02,20,10,0,0.00
2013-3-31,74,68,63,69,66,61,96,92,85,30.02,29.91,34,11,20,0.35
2013-4-1,73,67,64,66,64,62,96,90,77,30.11,29.96,17,9,6,0.00
2013-4-2,69,67,65,67,65,64,97,93,90,30.05,29.81,41,12,0,0.91
2013-4-3,65,62,55,64,60,53,98,93,85,30.10,29.81,30,21,22,0.66
2013-4-4,57,54,52,53,50,45,94,85,74,30.20,30.04,28,17,0,0.00
2013-4-5,65,57,52,54,48,45,82,74,55,30.29,30.14,31,14,0,0.00
2013-4-6,70,66,60,63,59,54,88,78,72,30.16,30.01,26,13,0,0.00
2013-4-7,73,70,66,66,64,62,93,82,71,30.04,29.91,20,11,0,0.00
2013-4-8,72,69,67,68,67,66,96,92,85,29.92,29.82,21,12,0,0.00
2013-4-9,74,70,68,71,69,67,96,93,89,29.85,29.75,25,15,0,0.01
2013-4-10,75,69,56,72,67,54,98,94,89,29.84,29.73,29,15,0,1.06
2013-4-11,66,56,47,55,51,46,99,84,56,29.95,29.79,38,20,42,0.89
2013-4-12,70,66,61,58,54,49,80,68,58,30.05,29.91,11,6,12,0.00
2013-4-13,71,68,64,63,60,55,85,75,65,30.01,29.85,22,11,25,0.00
2013-4-14,73,70,65,68,65,63,94,86,77,29.84,29.74,20,9,23,0.00
2013-4-15,74,71,69,71,69,68,97,94,88,29.90,29.78,15,9,0,0.00
2013-4-16,76,73,71,73,71,70,97,95,88,30.00,29.87,28,11,8,0.00
2013-4-17,74,73,72,72,71,71,96,95,92,29.98,29.81,22,12,0,0.00
2013-4-18,74,68,58,72,65,50,98,92,76,30.05,29.76,49,19,0,0.11
2013-4-19,64,58,52,50,42,35,76,56,36,30.27,30.05,42,28,0,0.00
2013-4-20,64,60,55,51,46,38,73,59,43,30.29,30.14,24,13,14,0.00
2013-4-21,69,65,63,59,56,51,77,70,64,30.20,30.10,20,11,0,0.00
2013-4-22,70,68,65,63,61,58,86,77,69,30.14,30.00,16,8,0,0.00
2013-4-23,76,71,67,71,68,63,95,89,78,30.02,29.92,19,9,13,0.00
2013-4-24,72,62,54,71,56,50,96,82,64,30.22,30.00,42,21,29,0.01
2013-4-25,67,62,57,65,56,49,92,81,73,30.34,30.20,31,17,0,0.00
2013-4-26,74,70,67,70,68,65,96,91,83,30.25,30.14,20,10,0,0.00
2013-4-27,76,71,68,71,70,66,97,94,85,30.16,30.02,21,9,0,0.45
2013-4-28,77,71,66,69,65,55,95,81,50,30.11,29.89,29,7,0,0.99
2013-4-29,77,72,69,71,69,67,96,91,79,29.98,29.87,16,7,0,0.09
2013-4-30,75,72,70,70,67,65,95,86,73,29.89,29.79,22,7,12,0.00
2013-5-1,77,73,69,70,69,67,94,87,75,29.92,29.83,13,6,0,0.00
2013-5-2,75,68,55,70,62,48,95,83,70,30.17,29.91,43,25,44,0.00
2013-5-3,66,59,50,50,42,33,83,55,32,30.18,30.07,42,26,39,0.00
2013-5-4,70,65,58,59,50,37,79,59,39,30.13,29.92,35,16,25,0.00
2013-5-5,68,64,58,60,52,47,83,67,51,30.11,29.98,22,16,20,0.00
2013-5-6,72,66,61,62,55,47,82,67,53,30.14,30.02,12,4,0,0.00
2013-5-7,77,70,64,64,61,56,87,73,52,30.11,30.02,17,8,11,0.00
2013-5-8,74,71,69,68,66,64,89,84,78,30.05,30.01,14,10,0,0.00
2013-5-9,76,73,71,72,71,68,94,92,87,30.05,29.91,22,11,0,0.00
2013-5-10,77,72,66,72,69,65,98,88,71,30.08,29.89,35,13,33,0.32
2013-5-11,78,73,67,72,69,64,98,88,80,30.11,29.95,38,10,36,0.33
2013-5-12,78,74,70,70,63,51,88,71,42,30.21,30.09,22,12,23,0.00
2013-5-13,75,71,67,65,60,56,85,68,55,30.32,30.20,19,9,21,0.00
2013-5-14,73,71,68,68,66,65,90,84,77,30.27,30.16,17,9,7,0.00
2013-5-15,75,73,72,70,68,67,92,87,81,30.18,29.97,26,14,0,0.03
2013-5-16,76,74,72,72,71,69,94,90,87,30.00,29.87,25,11,7,0.00
2013-5-17,78,76,73,74,73,71,95,91,86,30.00,29.89,17,9,14,0.00
2013-5-18,79,76,74,75,73,72,94,90,85,30.02,29.95,22,15,0,0.00
2013-5-19,79,77,75,75,74,73,95,91,86,29.97,29.87,24,12,24,0.00
2013-5-20,78,77,76,75,74,73,95,92,89,29.95,29.88,16,11,19,0.00
2013-5-23,82,80,78,76,76,75,92,87,81,30.10,29.98,16,9,0,0.00
2013-5-24,81,79,77,76,75,74,94,90,83,30.17,30.05,14,9,19,0.00
2013-5-25,81,79,77,75,74,74,92,87,81,30.19,30.10,18,10,20,0.00
2013-5-26,82,80,77,75,74,72,91,82,75,30.15,30.06,20,13,22,0.00
2013-5-27,81,78,77,74,73,72,86,83,78,30.09,29.98,21,12,19,0.00
2013-5-28,82,79,78,74,73,71,87,81,75,30.02,29.92,24,16,0,0.00
2013-5-29,82,79,78,76,74,72,89,85,80,29.94,29.84,28,17,25,0.00
2013-5-30,83,81,78,78,76,75,91,87,83,29.94,29.86,24,13,24,0.00
2013-5-31,84,81,79,78,77,77,92,88,82,29.97,29.89,26,15,18,0.00
2013-6-1,84,82,80,78,77,76,91,86,80,29.94,29.88,27,15,0,0.00
2013-6-2,83,78,71,77,73,69,98,87,67,30.06,29.91,42,13,48,0.23
2013-6-3,85,80,77,74,71,67,85,75,59,29.98,29.87,16,8,15,0.00
2013-6-4,84,81,77,76,74,72,86,79,69,29.96,29.87,11,5,15,0.00
2013-6-5,86,82,78,77,76,73,90,81,70,29.93,29.80,17,6,17,0.00
2013-6-6,87,82,70,78,75,66,91,81,70,29.91,29.77,25,8,33,0.36
2013-6-7,84,79,74,73,71,69,89,76,62,29.97,29.87,20,11,0,0.04
2013-6-8,83,80,77,74,72,67,88,75,64,29.96,29.87,15,6,3,0.03
2013-6-9,84,80,73,78,75,70,92,85,77,29.99,29.87,25,9,27,0.47
2013-6-10,85,81,78,78,76,74,91,85,77,30.03,29.97,14,6,10,0.00
2013-6-11,86,83,80,79,78,75,88,84,78,30.09,30.01,20,11,15,0.00
2013-6-12,85,83,81,79,78,76,86,84,79,30.11,30.02,15,9,16,0.00
2013-6-13,86,83,81,79,78,76,88,83,77,30.10,29.96,16,8,0,0.00
2013-6-14,87,84,81,80,78,74,91,82,66,30.01,29.93,13,6,7,0.00
2013-6-15,87,84,82,79,77,74,87,78,67,30.03,29.95,13,6,14,0.00
2013-6-16,86,84,81,78,77,74,88,80,70,30.07,29.98,19,10,21,0.04
2013-6-17,86,83,81,79,77,75,86,81,74,30.05,29.94,22,13,10,0.00
2013-6-18,86,83,79,77,76,74,88,81,72,30.03,29.92,20,10,24,0.00
2013-6-19,86,83,80,78,77,75,87,81,70,30.03,29.96,17,9,0,0.00
2013-6-20,87,84,81,78,77,76,87,81,73,30.12,30.00,14,7,0,0.00
2013-6-21,88,84,81,78,77,74,88,80,65,30.15,30.06,16,7,0,0.00
2013-6-22,87,84,81,78,76,73,86,77,65,30.12,30.00,13,8,9,0.00
2013-6-23,86,84,82,78,77,75,84,78,72,30.07,29.99,17,8,10,0.00
2013-6-24,87,84,79,78,77,73,86,79,74,30.12,30.02,21,10,23,0.28
2013-6-25,87,84,82,79,78,77,85,81,72,30.08,29.99,21,10,0,0.00
2013-6-26,87,84,82,78,77,75,86,79,70,30.05,29.98,16,10,10,0.00
2013-6-27,88,84,81,78,77,73,86,78,62,30.06,29.97,19,10,0,0.00
2013-6-28,89,85,81,79,77,74,91,77,66,30.02,29.86,20,11,18,0.00
2013-6-29,90,84,81,80,78,76,91,82,68,29.89,29.76,24,15,0,0.00
2013-6-30,96,87,81,80,70,61,89,60,34,29.88,29.79,15,6,0,0.00
2013-7-1,88,83,79,71,68,63,73,61,48,29.98,29.86,21,14,0,0.00
2013-7-2,88,83,79,72,69,64,74,63,49,30.04,29.96,11,5,0,0.00
2013-7-3,88,82,79,73,71,66,81,70,50,30.05,29.95,16,9,19,0.00
2013-7-4,87,83,80,75,73,70,83,72,60,30.02,29.93,13,6,0,0.00
2013-7-5,87,84,81,77,75,72,81,75,62,30.00,29.90,15,8,11,0.00
2013-7-6,87,84,81,78,76,74,85,78,68,29.97,29.90,23,10,23,0.00
2013-7-7,85,82,79,77,76,74,90,81,74,30.05,29.93,27,10,29,0.02
2013-7-8,85,83,79,78,76,71,85,80,69,30.17,30.05,15,8,0,0.00
2013-7-9,87,84,82,78,77,76,87,80,72,30.18,30.09,15,8,9,0.00
2013-7-10,86,84,80,78,77,73,88,79,71,30.13,30.01,17,8,10,0.08
2013-7-11,87,84,81,78,77,75,85,80,68,30.05,29.95,15,9,12,0.00
2013-7-12,87,84,81,77,76,73,85,78,68,30.01,29.92,17,8,14,0.00
2013-7-13,90,84,78,78,76,74,88,77,63,30.01,29.88,16,8,17,0.00
2013-7-14,85,83,79,78,76,70,86,79,73,30.00,29.91,24,6,25,0.44
2013-7-15,87,84,76,77,76,71,86,77,70,30.07,29.94,20,10,18,0.06
2013-7-16,85,81,76,77,75,71,91,83,73,30.13,30.04,22,10,27,0.80
2013-7-17,84,80,75,77,75,72,94,87,78,30.21,30.11,20,10,22,0.50
2013-7-18,86,83,79,78,75,68,92,77,60,30.17,30.03,15,9,22,0.00
2013-7-19,83,82,77,77,75,70,88,80,72,30.09,29.98,19,6,15,0.02
2013-7-20,86,83,80,79,76,72,92,80,68,30.02,29.90,13,6,14,0.02
2013-7-21,82,79,74,79,75,71,93,88,81,30.07,29.96,25,10,24,0.44
2013-7-22,86,84,82,80,78,78,90,82,77,30.08,30.00,19,11,22,0.00
2013-7-23,86,84,82,79,77,75,86,80,73,30.08,29.97,19,12,22,0.00
2013-7-24,87,84,82,78,77,75,85,80,73,30.05,29.93,24,13,24,0.00
2013-7-25,88,84,81,78,77,75,88,80,68,30.07,29.99,19,8,18,0.00
2013-7-26,87,84,82,79,77,74,87,80,68,30.09,29.97,19,11,23,0.00
2013-7-27,87,84,82,79,78,76,88,83,73,30.00,29.88,22,13,23,0.01
2013-7-28,87,84,81,80,78,75,91,82,71,30.02,29.94,21,10,24,0.00
2013-7-29,86,84,82,78,77,76,86,81,76,30.12,30.01,15,9,0,0.00
2013-7-30,86,84,82,78,77,75,85,80,75,30.17,30.08,21,9,16,0.00
2013-7-31,87,84,80,79,77,75,87,81,73,30.14,30.01,18,8,19,0.00
2013-8-1,91,84,81,79,77,75,87,79,66,30.07,29.96,16,8,16,0.00
2013-8-2,89,85,81,79,77,75,89,79,65,30.03,29.96,16,8,16,0.00
2013-8-3,87,85,82,79,78,76,86,80,73,30.08,30.00,17,9,17,0.00
2013-8-4,88,84,82,80,79,77,88,83,73,30.12,30.02,15,7,14,0.00
2013-8-5,88,85,82,80,78,77,88,80,74,30.09,29.99,26,13,27,0.00
2013-8-6,88,85,82,80,78,77,86,81,72,30.03,29.93,27,14,28,0.00
2013-8-7,88,85,82,80,78,77,86,81,72,30.00,29.91,21,14,28,0.00
2013-8-8,87,83,81,78,77,76,87,82,69,29.99,29.90,17,10,20,0.00
2013-8-9,89,85,82,80,78,76,87,80,68,30.00,29.92,17,6,12,0.00
2013-8-10,87,83,78,80,77,74,92,84,71,30.08,29.98,14,6,18,0.13
2013-8-11,87,85,83,79,77,75,85,78,68,30.09,30.03,12,7,13,0.00
2013-8-12,88,85,82,79,78,76,85,78,71,30.13,30.02,20,8,14,0.00
2013-8-13,89,85,83,80,78,77,86,80,70,30.09,29.96,18,11,21,0.00
2013-8-14,92,84,77,80,78,73,90,81,58,30.04,29.93,30,11,33,0.11
2013-8-15,82,79,76,77,75,74,95,87,77,30.06,29.96,19,5,15,0.68
2013-8-16,89,83,80,78,76,71,91,80,56,30.03,29.93,16,6,0,0.04
2013-8-17,88,82,77,78,72,70,88,73,56,30.04,29.94,22,10,0,0.00
2013-8-18,85,82,79,76,73,71,87,74,65,30.06,29.98,20,9,16,0.00
2013-8-19,88,84,81,76,73,70,83,71,57,30.07,29.97,18,8,6,0.00
2013-8-20,84,81,75,77,75,72,90,81,73,30.08,29.98,22,4,18,0.21
2013-8-21,87,84,81,79,77,74,85,78,70,30.11,30.03,24,8,26,0.00
2013-8-22,89,85,83,79,77,74,83,76,66,30.10,29.98,13,6,0,0.00
2013-8-23,90,85,82,79,77,74,85,77,62,30.05,29.93,18,6,0,0.00
2013-8-24,86,84,82,79,77,73,88,80,71,30.05,29.97,22,12,21,0.00
2013-8-25,83,80,77,78,77,74,95,89,82,30.11,30.00,22,10,18,1.34
2013-8-26,81,77,75,76,74,73,96,91,81,30.18,30.06,18,6,15,1.70
2013-8-27,86,82,78,78,76,73,92,81,69,30.15,30.07,14,7,20,0.00
2013-8-28,87,84,81,78,75,72,85,75,63,30.13,30.03,12,6,13,0.00
2013-8-29,91,84,81,78,76,74,87,77,62,30.11,29.99,18,8,21,0.00
2013-8-30,89,84,82,78,76,72,84,78,58,30.07,29.95,11,5,9,0.00
2013-8-31,87,84,81,77,75,74,83,75,65,30.00,29.90,18,8,0,0.00
2013-9-1,87,84,82,78,76,74,82,76,68,29.98,29.89,15,8,0,0.00
2013-9-2,90,85,83,79,78,74,85,78,62,30.02,29.90,19,10,0,0.00
2013-9-3,89,85,80,79,78,76,91,79,67,30.04,29.92,15,9,0,0.00
2013-9-4,88,84,81,79,77,74,88,81,67,30.10,29.96,12,6,0,0.00
2013-9-5,87,84,79,79,77,75,87,79,71,30.11,30.04,15,6,0,0.06
2013-9-6,88,83,77,79,77,73,90,81,68,30.12,30.01,21,8,0,0.15
2013-9-7,85,83,79,79,77,74,89,81,71,30.07,29.96,14,6,0,0.27
2013-9-8,86,82,76,77,75,70,90,81,73,30.02,29.95,18,6,5,0.07
2013-9-9,86,83,81,77,75,74,84,76,70,30.03,29.95,18,9,0,0.00
2013-9-10,86,84,83,78,75,73,81,75,72,30.09,30.00,20,10,0,0.05
2013-9-11,86,84,81,78,76,73,84,77,69,30.12,30.03,22,10,0,0.00
2013-9-12,87,84,81,78,75,70,88,75,57,30.06,29.95,20,11,20,0.00
2013-9-13,88,84,82,79,76,72,87,77,60,29.97,29.85,16,9,0,0.00
2013-9-14,86,83,81,78,76,74,89,79,67,29.95,29.88,21,10,0,0.00
2013-9-15,86,84,83,78,77,75,81,78,74,30.03,29.93,20,11,0,0.00
2013-9-16,86,84,83,79,77,76,83,79,73,30.06,29.99,21,13,24,0.00
2013-9-17,86,84,79,79,77,75,88,81,72,30.07,29.98,20,10,0,0.27
2013-9-18,86,84,82,78,77,75,84,80,72,30.03,29.94,18,11,22,0.00
2013-9-19,86,83,79,80,78,76,89,83,77,29.99,29.89,19,10,0,0.32
2013-9-20,86,83,76,81,79,75,96,85,80,29.92,29.77,35,17,0,1.02
2013-9-21,77,75,73,75,72,70,96,91,82,29.85,29.76,38,25,35,1.15
2013-9-22,79,76,72,71,68,65,83,78,70,29.85,29.77,32,22,23,0.00
2013-9-23,83,78,72,78,72,66,94,83,69,29.84,29.75,25,16,0,0.02
2013-9-24,85,81,78,79,78,77,96,90,80,29.88,29.80,12,6,0,0.00
2013-9-25,87,82,76,79,76,72,95,82,66,29.91,29.82,9,4,0,0.01
2013-9-26,86,82,78,75,73,68,85,73,57,29.95,29.86,14,6,0,0.00
2013-9-27,85,83,81,77,75,73,81,77,73,29.99,29.92,23,11,0,0.00
2013-9-28,85,82,80,77,76,73,90,81,76,30.03,29.94,24,10,0,0.00
2013-9-29,83,81,76,78,76,74,93,85,80,30.02,29.93,17,8,0,0.45
2013-9-30,84,80,78,78,75,73,91,85,74,29.93,29.86,12,6,0,0.01
2013-10-1,82,78,72,77,75,69,98,90,81,30.01,29.89,22,7,29,1.37
2013-10-2,84,81,80,77,76,74,87,83,77,30.02,29.94,19,8,0,0.00
2013-10-3,85,82,79,77,76,73,89,81,68,30.00,29.92,16,9,7,0.01
2013-10-4,85,82,79,78,76,74,88,81,74,29.98,29.92,18,8,0,0.00
2013-10-5,87,83,80,78,77,75,89,83,73,29.96,29.88,22,5,0,0.00
2013-10-6,78,71,66,73,58,48,87,64,37,30.09,29.95,35,22,25,0.01
2013-10-7,76,72,68,61,54,48,66,54,43,30.16,30.06,30,14,24,0.00
2013-10-8,77,73,69,66,60,56,77,64,57,30.12,30.04,13,5,5,0.00
2013-10-9,78,74,71,65,63,59,74,67,60,30.11,30.04,9,4,5,0.00
2013-10-10,81,77,75,71,68,64,76,72,64,30.09,29.99,21,8,0,0.00
2013-10-11,83,80,77,77,73,68,89,78,73,30.01,29.93,13,7,14,0.00
2013-10-12,83,80,75,79,77,71,94,89,81,30.09,29.95,15,5,19,0.34
2013-10-13,80,77,76,77,74,72,93,90,85,30.17,30.06,20,10,22,0.02
2013-10-14,83,79,76,74,73,72,90,81,73,30.13,30.01,14,5,0,0.00
2013-10-15,82,80,78,75,73,72,85,80,73,30.03,29.94,15,5,16,0.00
2013-10-16,79,76,69,74,72,66,94,88,82,30.02,29.92,19,9,18,0.05
2013-10-17,72,68,66,66,64,63,94,87,78,30.11,30.00,22,14,24,0.00
2013-10-18,75,71,68,71,64,60,93,79,68,30.03,29.89,28,14,24,0.00
2013-10-19,69,66,62,68,59,51,98,78,58,30.12,29.95,34,20,31,0.34
2013-10-20,71,67,60,64,60,52,88,78,64,30.12,29.99,19,9,21,0.00
2013-10-21,75,72,67,70,67,64,95,87,75,30.05,29.94,19,8,19,0.37
2013-10-22,71,68,65,69,64,56,95,86,61,30.12,29.99,25,17,24,0.00
2013-10-23,76,70,64,61,57,50,81,64,44,30.20,30.11,9,2,8,0.00
2013-10-24,78,70,66,66,62,54,91,75,47,30.26,30.15,10,4,12,0.00
2013-10-25,72,69,65,68,63,61,91,83,75,30.38,30.25,24,14,28,0.00
2013-10-26,77,73,70,66,65,63,82,75,68,30.29,30.14,14,7,18,0.00
2013-10-27,75,71,65,68,66,63,96,84,73,30.15,30.05,32,7,40,0.85
2013-10-28,81,76,69,74,71,66,95,85,74,30.16,30.06,18,8,18,0.00
2013-10-29,80,77,75,73,71,70,90,82,74,30.17,30.09,21,10,0,0.00
2013-10-30,80,78,76,76,74,72,95,89,85,30.12,29.92,20,12,0,0.11
2013-10-31,79,71,66,76,68,-100,99,94,88,29.95,29.82,31,2,31,1.89
2013-11-1,76,71,66,70,65,59,96,83,62,29.98,29.88,13,5,9,0.00
2013-11-2,73,67,64,69,53,43,89,62,40,30.25,29.98,37,23,0,0.02
2013-11-3,67,63,59,57,53,48,86,69,55,30.24,30.12,27,13,0,0.00
2013-11-4,76,72,65,67,65,57,88,77,71,30.13,30.04,28,14,0,0.00
2013-11-5,78,76,74,73,70,67,92,82,75,30.09,30.01,19,10,18,0.00
2013-11-6,81,72,60,74,69,54,94,88,78,30.26,30.03,38,14,35,0.53
2013-11-7,65,58,51,54,48,46,87,71,53,30.40,30.24,39,28,29,0.00
2013-11-8,64,59,54,51,48,45,77,66,53,30.39,30.22,33,18,32,0.00
2013-11-9,68,64,60,60,57,51,85,78,66,30.25,30.17,18,10,0,0.00
2013-11-10,68,64,59,62,59,55,89,84,78,30.32,30.22,18,10,16,0.00
2013-11-11,70,65,61,64,60,56,93,83,70,30.29,30.18,15,6,15,0.00
2013-11-12,69,63,50,64,58,42,94,82,69,30.57,30.23,43,24,44,0.00
2013-11-13,54,46,40,42,36,33,81,67,45,30.62,30.43,41,26,40,0.00
2013-11-14,63,56,48,58,50,41,87,81,68,30.43,30.10,22,12,21,0.00
2013-11-15,71,66,59,68,64,55,96,92,87,30.10,29.96,15,9,19,0.00
2013-11-16,76,72,66,73,70,64,97,94,89,30.00,29.86,20,8,0,0.01
2013-11-17,79,74,72,76,73,71,98,96,89,29.98,29.86,17,7,10,0.00
2013-11-18,73,69,64,72,65,56,99,86,60,30.12,29.97,25,10,26,0.02
2013-11-19,65,63,60,56,52,49,78,69,58,30.17,30.07,25,16,18,0.00
2013-11-20,71,68,60,69,63,50,96,85,61,30.08,29.98,20,13,23,0.02
2013-11-21,76,72,70,72,70,68,98,94,89,30.12,30.01,20,12,22,0.00
2013-11-22,74,65,50,73,64,49,98,97,91,30.27,30.09,30,14,30,0.21
2013-11-23,53,51,49,52,49,44,99,95,84,30.39,30.25,45,30,44,0.01
2013-11-24,50,47,44,44,39,36,85,74,60,30.43,30.31,37,24,39,0.00
2013-11-25,48,45,42,45,43,39,98,93,73,30.31,29.95,41,28,40,0.41
2013-11-26,47,43,40,44,41,39,98,92,81,30.29,29.99,36,24,41,0.93
2013-11-27,48,44,39,41,36,33,87,72,57,30.45,30.29,33,18,0,0.00
2013-11-28,53,48,44,47,42,33,90,78,64,30.50,30.41,19,11,0,0.00
2013-11-29,56,51,45,46,43,40,89,75,62,30.53,30.42,18,10,0,0.00
2013-11-30,66,58,53,57,54,46,94,86,70,30.42,30.25,12,5,0,0.00
2013-12-1,67,63,57,62,59,55,95,88,80,30.25,29.99,14,8,0,0.00
2013-12-2,71,65,60,64,62,59,97,92,78,30.00,29.76,21,11,0,0.00
2013-12-3,73,67,63,69,65,62,98,94,85,29.80,29.69,22,8,27,0.01
2013-12-4,74,69,64,72,68,63,99,97,89,29.88,29.76,18,7,17,0.01
2013-12-5,72,60,47,72,59,45,99,96,91,30.02,29.85,34,16,34,0.00
2013-12-6,47,44,40,46,42,38,98,94,88,30.36,29.98,36,23,39,0.03
2013-12-7,41,40,39,39,37,36,96,91,89,30.41,30.30,33,19,33,0.00
2013-12-8,48,43,40,46,40,37,93,89,85,30.29,30.07,18,12,20,0.00
2013-12-9,49,47,44,48,46,42,97,95,92,30.28,30.05,30,6,34,0.05
2013-12-10,48,43,38,42,38,34,95,82,65,30.46,30.28,34,22,38,0.00
2013-12-11,50,47,43,46,43,39,88,84,79,30.52,30.36,18,12,20,0.00
2013-12-12,51,47,42,46,41,37,86,81,75,30.57,30.37,30,16,31,0.00
2013-12-13,63,56,47,61,54,43,99,93,85,30.37,29.90,20,9,21,0.02
2013-12-14,59,54,45,57,51,38,99,90,74,30.29,29.89,39,12,46,0.01
2013-12-15,51,46,40,44,39,34,89,77,65,30.41,30.29,30,12,29,0.00
2013-12-16,57,50,44,47,44,40,91,79,57,30.39,30.28,8,3,10,0.00
2013-12-17,61,55,48,54,51,46,95,86,72,30.38,30.28,9,4,11,0.00
2013-12-18,63,58,50,57,54,49,96,87,76,30.35,30.16,14,6,18,0.01
2013-12-19,70,66,61,66,62,55,96,89,76,30.16,29.94,21,10,20,0.11
2013-12-20,70,68,66,69,67,65,98,97,95,29.97,29.82,15,4,16,0.00
2013-12-21,71,66,58,70,65,56,98,96,90,29.85,29.63,9,1,0,0.33
2013-12-22,64,57,44,61,53,38,96,86,73,30.34,29.86,37,14,0,0.02
2013-12-23,52,45,37,42,37,34,91,76,61,30.56,30.34,37,21,24,0.00
2013-12-24,52,46,42,43,38,35,81,74,59,30.59,30.36,25,15,24,0.00
2013-12-25,57,54,49,51,47,42,93,78,70,30.39,30.32,19,10,0,0.00
2013-12-26,57,53,50,49,44,33,87,72,43,30.42,30.34,17,7,8,0.00
2013-12-27,54,52,50,49,46,40,87,79,64,30.45,30.33,23,11,15,0.01
2013-12-28,53,50,48,45,42,40,81,74,67,30.33,30.08,22,8,0,0.00
2013-12-29,62,54,47,52,47,43,91,78,59,30.18,30.04,15,4,0,0.00
2013-12-30,54,46,44,51,42,39,90,83,79,30.41,30.15,28,19,29,0.00
2013-12-31,49,45,43,46,40,37,90,84,78,30.46,30.31,27,12,27,0.00
2014-1-1,60,54,49,58,53,47,97,95,90,30.32,30.06,8,2,4,0.01
2014-1-2,57,50,43,56,42,32,97,75,49,30.46,30.08,34,19,38,0.01